sensor_id;sensor_type;location;lat;lon;timestamp;temperature;humidity
7566;DHT22;3824;48.010;7.832;2022-07-11T00:01:02;17.50;96.30
7566;DHT22;3824;48.010;7.832;2022-07-11T00:03:29;17.50;96.20
7566;DHT22;3824;48.010;7.832;2022-07-11T00:05:56;17.50;96.20
7566;DHT22;3824;48.010;7.832;2022-07-11T00:08:22;17.60;95.60
7566;DHT22;3824;48.010;7.832;2022-07-11T00:10:49;17.50;95.20
7566;DHT22;3824;48.010;7.832;2022-07-11T00:13:16;17.40;95.60
7566;DHT22;3824;48.010;7.832;2022-07-11T00:15:45;17.30;95.50
7566;DHT22;3824;48.010;7.832;2022-07-11T00:18:11;17.30;95.80
7566;DHT22;3824;48.010;7.832;2022-07-11T00:20:38;17.20;95.70
7566;DHT22;3824;48.010;7.832;2022-07-11T00:23:05;17.20;95.80
7566;DHT22;3824;48.010;7.832;2022-07-11T00:25:32;17.10;96.00
7566;DHT22;3824;48.010;7.832;2022-07-11T00:27:59;17.00;96.40
7566;DHT22;3824;48.010;7.832;2022-07-11T00:30:26;18.00;96.70
7566;DHT22;3824;48.010;7.832;2022-07-11T00:32:54;16.90;96.40
7566;DHT22;3824;48.010;7.832;2022-07-11T00:35:21;16.90;96.40
7566;DHT22;3824;48.010;7.832;2022-07-11T00:37:48;16.80;96.90
7566;DHT22;3824;48.010;7.832;2022-07-11T00:40:15;16.70;96.60
7566;DHT22;3824;48.010;7.832;2022-07-11T00:42:42;16.60;97.10
7566;DHT22;3824;48.010;7.832;2022-07-11T00:45:09;16.40;97.50
7566;DHT22;3824;48.010;7.832;2022-07-11T00:47:36;16.30;97.50
7566;DHT22;3824;48.010;7.832;2022-07-11T00:50:05;16.20;97.50
7566;DHT22;3824;48.010;7.832;2022-07-11T00:52:34;16.10;98.10
7566;DHT22;3824;48.010;7.832;2022-07-11T00:55:02;16.00;98.10
7566;DHT22;3824;48.010;7.832;2022-07-11T00:57:30;15.80;98.50
7566;DHT22;3824;48.010;7.832;2022-07-11T00:59:57;15.70;98.80
7566;DHT22;3824;48.010;7.832;2022-07-11T01:02:24;15.60;98.70
7566;DHT22;3824;48.010;7.832;2022-07-11T01:04:51;15.50;99.00
7566;DHT22;3824;48.010;7.832;2022-07-11T01:07:20;15.40;99.30
7566;DHT22;3824;48.010;7.832;2022-07-11T01:09:47;15.20;99.40
7566;DHT22;3824;48.010;7.832;2022-07-11T01:12:14;15.10;99.60
7566;DHT22;3824;48.010;7.832;2022-07-11T01:14:50;15.00;99.90
7566;DHT22;3824;48.010;7.832;2022-07-11T01:17:17;15.00;99.90
7566;DHT22;3824;48.010;7.832;2022-07-11T01:19:44;14.90;99.90
7566;DHT22;3824;48.010;7.832;2022-07-11T01:22:13;14.90;99.90
7566;DHT22;3824;48.010;7.832;2022-07-11T01:24:42;14.90;99.90
7566;DHT22;3824;48.010;7.832;2022-07-11T01:27:10;15.00;99.90
7566;DHT22;3824;48.010;7.832;2022-07-11T01:29:38;15.00;99.90
7566;DHT22;3824;48.010;7.832;2022-07-11T01:32:05;15.00;99.90
7566;DHT22;3824;48.010;7.832;2022-07-11T01:34:32;15.10;99.90
7566;DHT22;3824;48.010;7.832;2022-07-11T01:36:59;15.00;99.90
7566;DHT22;3824;48.010;7.832;2022-07-11T01:39:26;15.00;99.90
7566;DHT22;3824;48.010;7.832;2022-07-11T01:41:56;15.00;99.90
7566;DHT22;3824;48.010;7.832;2022-07-11T01:44:23;15.00;99.90
7566;DHT22;3824;48.010;7.832;2022-07-11T01:46:50;15.00;99.90
7566;DHT22;3824;48.010;7.832;2022-07-11T01:49:17;15.00;99.90
7566;DHT22;3824;48.010;7.832;2022-07-11T01:51:44;15.00;99.90
7566;DHT22;3824;48.010;7.832;2022-07-11T01:54:11;15.00;99.90
7566;DHT22;3824;48.010;7.832;2022-07-11T01:56:38;15.00;99.90
7566;DHT22;3824;48.010;7.832;2022-07-11T01:59:07;15.10;99.90
7566;DHT22;3824;48.010;7.832;2022-07-11T02:01:34;15.30;99.90
7566;DHT22;3824;48.010;7.832;2022-07-11T02:04:01;15.30;99.90
7566;DHT22;3824;48.010;7.832;2022-07-11T02:06:28;15.30;99.90
7566;DHT22;3824;48.010;7.832;2022-07-11T02:08:54;15.40;99.90
7566;DHT22;3824;48.010;7.832;2022-07-11T02:11:21;15.50;99.90
7566;DHT22;3824;48.010;7.832;2022-07-11T02:13:49;15.50;99.90
7566;DHT22;3824;48.010;7.832;2022-07-11T02:16:17;15.50;99.90
7566;DHT22;3824;48.010;7.832;2022-07-11T02:18:44;15.40;99.90
7566;DHT22;3824;48.010;7.832;2022-07-11T02:21:11;15.40;99.90
7566;DHT22;3824;48.010;7.832;2022-07-11T02:23:39;15.30;99.90
7566;DHT22;3824;48.010;7.832;2022-07-11T02:26:06;15.10;99.90
7566;DHT22;3824;48.010;7.832;2022-07-11T02:28:33;14.40;99.90
7566;DHT22;3824;48.010;7.832;2022-07-11T02:31:02;14.90;99.90
7566;DHT22;3824;48.010;7.832;2022-07-11T02:33:31;14.80;99.90
7566;DHT22;3824;48.010;7.832;2022-07-11T02:35:57;14.70;99.90
7566;DHT22;3824;48.010;7.832;2022-07-11T02:38:25;14.70;99.90
7566;DHT22;3824;48.010;7.832;2022-07-11T02:40:52;14.60;99.90
7566;DHT22;3824;48.010;7.832;2022-07-11T02:43:19;14.50;99.90
7566;DHT22;3824;48.010;7.832;2022-07-11T02:45:46;14.40;99.90
7566;DHT22;3824;48.010;7.832;2022-07-11T02:48:13;14.30;99.90
7566;DHT22;3824;48.010;7.832;2022-07-11T02:50:41;14.20;99.90
7566;DHT22;3824;48.010;7.832;2022-07-11T02:53:08;14.10;99.90
7566;DHT22;3824;48.010;7.832;2022-07-11T02:55:35;14.00;99.90
7566;DHT22;3824;48.010;7.832;2022-07-11T02:58:02;13.90;99.90
7566;DHT22;3824;48.010;7.832;2022-07-11T03:00:29;13.90;99.90
7566;DHT22;3824;48.010;7.832;2022-07-11T03:02:56;13.80;99.90
7566;DHT22;3824;48.010;7.832;2022-07-11T03:05:23;13.80;99.90
7566;DHT22;3824;48.010;7.832;2022-07-11T03:07:51;13.70;99.90
7566;DHT22;3824;48.010;7.832;2022-07-11T03:10:18;13.60;99.90
7566;DHT22;3824;48.010;7.832;2022-07-11T03:12:45;13.50;99.90
7566;DHT22;3824;48.010;7.832;2022-07-11T03:15:12;13.40;99.90
7566;DHT22;3824;48.010;7.832;2022-07-11T03:17:39;13.40;99.90
7566;DHT22;3824;48.010;7.832;2022-07-11T03:20:08;13.30;99.90
7566;DHT22;3824;48.010;7.832;2022-07-11T03:22:35;13.30;99.90
7566;DHT22;3824;48.010;7.832;2022-07-11T03:25:04;13.20;99.90
7566;DHT22;3824;48.010;7.832;2022-07-11T03:27:32;13.20;99.90
7566;DHT22;3824;48.010;7.832;2022-07-11T03:29:58;13.30;99.90
7566;DHT22;3824;48.010;7.832;2022-07-11T03:32:25;13.30;99.90
7566;DHT22;3824;48.010;7.832;2022-07-11T03:34:52;13.30;99.90
7566;DHT22;3824;48.010;7.832;2022-07-11T03:37:33;13.30;99.90
7566;DHT22;3824;48.010;7.832;2022-07-11T03:40:00;13.20;99.90
7566;DHT22;3824;48.010;7.832;2022-07-11T03:42:29;13.20;99.90
7566;DHT22;3824;48.010;7.832;2022-07-11T03:44:56;13.20;99.90
7566;DHT22;3824;48.010;7.832;2022-07-11T03:47:22;13.20;99.90
7566;DHT22;3824;48.010;7.832;2022-07-11T03:49:49;13.30;99.90
7566;DHT22;3824;48.010;7.832;2022-07-11T03:52:16;13.50;99.90
7566;DHT22;3824;48.010;7.832;2022-07-11T03:54:43;13.70;99.90
7566;DHT22;3824;48.010;7.832;2022-07-11T03:57:10;13.90;99.90
7566;DHT22;3824;48.010;7.832;2022-07-11T03:59:39;14.20;99.90
7566;DHT22;3824;48.010;7.832;2022-07-11T04:02:06;14.40;99.90
7566;DHT22;3824;48.010;7.832;2022-07-11T04:04:33;14.50;99.90
7566;DHT22;3824;48.010;7.832;2022-07-11T04:07:00;14.60;99.90
7566;DHT22;3824;48.010;7.832;2022-07-11T04:09:26;14.70;99.90
7566;DHT22;3824;48.010;7.832;2022-07-11T04:11:53;14.60;99.90
7566;DHT22;3824;48.010;7.832;2022-07-11T04:14:20;14.60;99.90
7566;DHT22;3824;48.010;7.832;2022-07-11T04:16:48;14.50;99.90
7566;DHT22;3824;48.010;7.832;2022-07-11T04:19:15;14.50;99.90
7566;DHT22;3824;48.010;7.832;2022-07-11T04:21:42;14.60;99.90
7566;DHT22;3824;48.010;7.832;2022-07-11T04:24:09;14.60;99.90
7566;DHT22;3824;48.010;7.832;2022-07-11T04:26:36;14.70;99.90
7566;DHT22;3824;48.010;7.832;2022-07-11T04:29:02;14.80;99.90
7566;DHT22;3824;48.010;7.832;2022-07-11T04:31:29;14.80;99.90
7566;DHT22;3824;48.010;7.832;2022-07-11T04:33:58;14.80;99.90
7566;DHT22;3824;48.010;7.832;2022-07-11T04:36:24;14.70;99.90
7566;DHT22;3824;48.010;7.832;2022-07-11T04:38:51;14.80;99.90
7566;DHT22;3824;48.010;7.832;2022-07-11T04:41:19;15.00;99.90
7566;DHT22;3824;48.010;7.832;2022-07-11T04:43:46;15.10;99.90
7566;DHT22;3824;48.010;7.832;2022-07-11T04:46:13;15.20;99.90
7566;DHT22;3824;48.010;7.832;2022-07-11T04:48:40;15.30;99.90
7566;DHT22;3824;48.010;7.832;2022-07-11T04:51:08;15.40;99.90
7566;DHT22;3824;48.010;7.832;2022-07-11T04:53:35;15.40;99.90
7566;DHT22;3824;48.010;7.832;2022-07-11T04:56:03;15.50;99.90
7566;DHT22;3824;48.010;7.832;2022-07-11T04:58:30;15.50;99.90
7566;DHT22;3824;48.010;7.832;2022-07-11T05:00:58;15.40;99.90
7566;DHT22;3824;48.010;7.832;2022-07-11T05:03:25;15.30;99.90
7566;DHT22;3824;48.010;7.832;2022-07-11T05:05:52;15.30;99.90
7566;DHT22;3824;48.010;7.832;2022-07-11T05:08:20;15.20;99.90
7566;DHT22;3824;48.010;7.832;2022-07-11T05:10:47;15.20;99.90
7566;DHT22;3824;48.010;7.832;2022-07-11T05:13:14;15.20;99.90
7566;DHT22;3824;48.010;7.832;2022-07-11T05:15:40;15.20;99.90
7566;DHT22;3824;48.010;7.832;2022-07-11T05:18:08;15.30;99.90
7566;DHT22;3824;48.010;7.832;2022-07-11T05:20:35;15.30;99.90
7566;DHT22;3824;48.010;7.832;2022-07-11T05:23:02;15.30;99.90
7566;DHT22;3824;48.010;7.832;2022-07-11T05:25:30;15.40;99.90
7566;DHT22;3824;48.010;7.832;2022-07-11T05:27:57;15.40;99.90
7566;DHT22;3824;48.010;7.832;2022-07-11T05:30:24;15.50;99.90
7566;DHT22;3824;48.010;7.832;2022-07-11T05:32:50;15.50;99.90
7566;DHT22;3824;48.010;7.832;2022-07-11T05:35:18;15.50;99.90
7566;DHT22;3824;48.010;7.832;2022-07-11T05:37:45;15.60;99.90
7566;DHT22;3824;48.010;7.832;2022-07-11T05:40:12;15.70;99.90
7566;DHT22;3824;48.010;7.832;2022-07-11T05:42:40;15.70;99.90
7566;DHT22;3824;48.010;7.832;2022-07-11T05:45:08;15.80;99.90
7566;DHT22;3824;48.010;7.832;2022-07-11T05:47:35;15.90;99.90
7566;DHT22;3824;48.010;7.832;2022-07-11T05:50:03;16.00;99.90
7566;DHT22;3824;48.010;7.832;2022-07-11T05:52:30;16.10;99.90
7566;DHT22;3824;48.010;7.832;2022-07-11T05:54:57;16.20;99.90
7566;DHT22;3824;48.010;7.832;2022-07-11T05:57:24;16.30;99.90
7566;DHT22;3824;48.010;7.832;2022-07-11T05:59:52;16.40;99.90
7566;DHT22;3824;48.010;7.832;2022-07-11T06:02:20;16.40;99.90
7566;DHT22;3824;48.010;7.832;2022-07-11T06:04:46;16.50;99.90
7566;DHT22;3824;48.010;7.832;2022-07-11T06:07:13;16.70;99.90
7566;DHT22;3824;48.010;7.832;2022-07-11T06:10:01;16.80;99.90
7566;DHT22;3824;48.010;7.832;2022-07-11T06:12:27;17.00;99.90
7566;DHT22;3824;48.010;7.832;2022-07-11T06:14:55;17.00;99.90
7566;DHT22;3824;48.010;7.832;2022-07-11T06:17:22;17.20;99.90
7566;DHT22;3824;48.010;7.832;2022-07-11T06:19:49;17.30;99.90
7566;DHT22;3824;48.010;7.832;2022-07-11T06:22:16;17.40;99.90
7566;DHT22;3824;48.010;7.832;2022-07-11T06:24:43;17.50;99.90
7566;DHT22;3824;48.010;7.832;2022-07-11T06:27:10;17.70;99.90
7566;DHT22;3824;48.010;7.832;2022-07-11T06:29:37;17.80;99.90
7566;DHT22;3824;48.010;7.832;2022-07-11T06:32:06;17.90;99.90
7566;DHT22;3824;48.010;7.832;2022-07-11T06:34:33;18.00;99.90
7566;DHT22;3824;48.010;7.832;2022-07-11T06:37:02;18.10;99.90
7566;DHT22;3824;48.010;7.832;2022-07-11T06:39:29;18.20;99.90
7566;DHT22;3824;48.010;7.832;2022-07-11T06:41:56;18.30;99.90
7566;DHT22;3824;48.010;7.832;2022-07-11T06:44:23;18.30;99.90
7566;DHT22;3824;48.010;7.832;2022-07-11T06:46:50;18.50;99.90
7566;DHT22;3824;48.010;7.832;2022-07-11T06:49:19;18.60;99.90
7566;DHT22;3824;48.010;7.832;2022-07-11T06:51:45;18.60;99.90
7566;DHT22;3824;48.010;7.832;2022-07-11T06:54:12;18.80;99.90
7566;DHT22;3824;48.010;7.832;2022-07-11T06:56:39;18.80;99.90
7566;DHT22;3824;48.010;7.832;2022-07-11T06:59:06;18.90;99.90
7566;DHT22;3824;48.010;7.832;2022-07-11T07:01:33;18.90;99.90
7566;DHT22;3824;48.010;7.832;2022-07-11T07:04:00;19.00;99.90
7566;DHT22;3824;48.010;7.832;2022-07-11T07:06:28;19.10;99.90
7566;DHT22;3824;48.010;7.832;2022-07-11T07:08:55;19.10;99.90
7566;DHT22;3824;48.010;7.832;2022-07-11T07:11:22;19.20;99.90
7566;DHT22;3824;48.010;7.832;2022-07-11T07:13:49;19.30;99.90
7566;DHT22;3824;48.010;7.832;2022-07-11T07:16:16;19.30;99.90
7566;DHT22;3824;48.010;7.832;2022-07-11T07:18:43;19.50;99.90
7566;DHT22;3824;48.010;7.832;2022-07-11T07:21:11;19.50;99.90
7566;DHT22;3824;48.010;7.832;2022-07-11T07:23:39;19.60;99.90
7566;DHT22;3824;48.010;7.832;2022-07-11T07:26:06;19.70;99.90
7566;DHT22;3824;48.010;7.832;2022-07-11T07:28:33;19.70;99.90
7566;DHT22;3824;48.010;7.832;2022-07-11T07:31:00;19.70;99.90
7566;DHT22;3824;48.010;7.832;2022-07-11T07:33:27;19.80;99.90
7566;DHT22;3824;48.010;7.832;2022-07-11T07:35:54;19.90;99.90
7566;DHT22;3824;48.010;7.832;2022-07-11T07:38:21;20.00;99.90
7566;DHT22;3824;48.010;7.832;2022-07-11T07:40:49;20.10;99.90
7566;DHT22;3824;48.010;7.832;2022-07-11T07:43:17;20.20;99.90
7566;DHT22;3824;48.010;7.832;2022-07-11T07:45:43;20.20;99.90
7566;DHT22;3824;48.010;7.832;2022-07-11T07:48:11;20.30;99.90
7566;DHT22;3824;48.010;7.832;2022-07-11T07:50:37;20.40;99.90
7566;DHT22;3824;48.010;7.832;2022-07-11T07:53:04;20.60;99.90
7566;DHT22;3824;48.010;7.832;2022-07-11T07:55:33;20.70;99.10
7566;DHT22;3824;48.010;7.832;2022-07-11T07:58:01;20.80;98.00
7566;DHT22;3824;48.010;7.832;2022-07-11T08:00:28;20.80;97.70
7566;DHT22;3824;48.010;7.832;2022-07-11T08:03:12;20.90;97.80
7566;DHT22;3824;48.010;7.832;2022-07-11T08:05:39;20.90;97.90
7566;DHT22;3824;48.010;7.832;2022-07-11T08:08:07;21.00;97.60
7566;DHT22;3824;48.010;7.832;2022-07-11T08:10:34;21.10;98.00
7566;DHT22;3824;48.010;7.832;2022-07-11T08:13:03;21.20;97.30
7566;DHT22;3824;48.010;7.832;2022-07-11T08:15:30;21.30;96.10
7566;DHT22;3824;48.010;7.832;2022-07-11T08:17:57;21.30;95.30
7566;DHT22;3824;48.010;7.832;2022-07-11T08:20:24;21.40;95.90
7566;DHT22;3824;48.010;7.832;2022-07-11T08:22:51;21.50;95.30
7566;DHT22;3824;48.010;7.832;2022-07-11T08:25:18;21.70;95.30
7566;DHT22;3824;48.010;7.832;2022-07-11T08:27:44;21.80;95.10
7566;DHT22;3824;48.010;7.832;2022-07-11T08:30:13;21.90;95.30
7566;DHT22;3824;48.010;7.832;2022-07-11T08:32:40;21.90;95.30
7566;DHT22;3824;48.010;7.832;2022-07-11T08:35:07;22.00;94.90
7566;DHT22;3824;48.010;7.832;2022-07-11T08:37:34;22.10;95.00
7566;DHT22;3824;48.010;7.832;2022-07-11T08:40:02;22.20;94.90
7566;DHT22;3824;48.010;7.832;2022-07-11T08:42:29;22.20;95.00
7566;DHT22;3824;48.010;7.832;2022-07-11T08:44:57;22.40;94.40
7566;DHT22;3824;48.010;7.832;2022-07-11T08:47:26;22.50;93.70
7566;DHT22;3824;48.010;7.832;2022-07-11T08:49:53;22.50;93.60
7566;DHT22;3824;48.010;7.832;2022-07-11T08:52:20;22.60;93.50
7566;DHT22;3824;48.010;7.832;2022-07-11T08:54:47;22.60;93.70
7566;DHT22;3824;48.010;7.832;2022-07-11T08:57:14;22.70;94.20
7566;DHT22;3824;48.010;7.832;2022-07-11T08:59:41;22.90;94.10
7566;DHT22;3824;48.010;7.832;2022-07-11T09:02:09;22.90;93.00
7566;DHT22;3824;48.010;7.832;2022-07-11T09:04:40;22.90;92.80
7566;DHT22;3824;48.010;7.832;2022-07-11T09:07:07;23.00;93.40
7566;DHT22;3824;48.010;7.832;2022-07-11T09:09:33;23.10;93.30
7566;DHT22;3824;48.010;7.832;2022-07-11T09:12:00;23.10;92.80
7566;DHT22;3824;48.010;7.832;2022-07-11T09:14:29;23.20;92.20
7566;DHT22;3824;48.010;7.832;2022-07-11T09:16:57;23.20;92.10
7566;DHT22;3824;48.010;7.832;2022-07-11T09:19:25;23.10;92.50
7566;DHT22;3824;48.010;7.832;2022-07-11T09:22:02;23.10;92.50
7566;DHT22;3824;48.010;7.832;2022-07-11T09:24:55;23.20;92.60
7566;DHT22;3824;48.010;7.832;2022-07-11T09:27:41;23.20;92.80
7566;DHT22;3824;48.010;7.832;2022-07-11T09:30:22;23.30;92.60
7566;DHT22;3824;48.010;7.832;2022-07-11T09:32:58;23.40;92.90
7566;DHT22;3824;48.010;7.832;2022-07-11T09:35:27;23.50;92.60
7566;DHT22;3824;48.010;7.832;2022-07-11T09:37:57;23.60;92.20
7566;DHT22;3824;48.010;7.832;2022-07-11T09:40:24;23.60;92.60
7566;DHT22;3824;48.010;7.832;2022-07-11T09:42:53;23.70;92.20
7566;DHT22;3824;48.010;7.832;2022-07-11T09:45:21;23.90;92.30
7566;DHT22;3824;48.010;7.832;2022-07-11T09:47:49;24.00;91.70
7566;DHT22;3824;48.010;7.832;2022-07-11T09:50:20;24.10;91.30
7566;DHT22;3824;48.010;7.832;2022-07-11T09:53:04;24.10;91.40
7566;DHT22;3824;48.010;7.832;2022-07-11T09:55:32;24.20;91.70
7566;DHT22;3824;48.010;7.832;2022-07-11T09:58:02;24.30;90.60
7566;DHT22;3824;48.010;7.832;2022-07-11T10:00:29;24.30;91.10
7566;DHT22;3824;48.010;7.832;2022-07-11T10:02:58;24.30;91.50
7566;DHT22;3824;48.010;7.832;2022-07-11T10:05:26;24.40;91.80
7566;DHT22;3824;48.010;7.832;2022-07-11T10:07:53;24.50;91.40
7566;DHT22;3824;48.010;7.832;2022-07-11T10:10:22;24.50;91.60
7566;DHT22;3824;48.010;7.832;2022-07-11T10:12:51;24.50;91.80
7566;DHT22;3824;48.010;7.832;2022-07-11T10:15:21;24.60;92.50
7566;DHT22;3824;48.010;7.832;2022-07-11T10:17:58;24.60;92.40
7566;DHT22;3824;48.010;7.832;2022-07-11T10:20:31;24.70;91.20
7566;DHT22;3824;48.010;7.832;2022-07-11T10:23:08;24.70;91.50
7566;DHT22;3824;48.010;7.832;2022-07-11T10:25:43;24.80;92.50
7566;DHT22;3824;48.010;7.832;2022-07-11T10:28:23;24.80;91.40
7566;DHT22;3824;48.010;7.832;2022-07-11T10:30:53;24.70;93.00
7566;DHT22;3824;48.010;7.832;2022-07-11T10:33:21;24.60;92.80
7566;DHT22;3824;48.010;7.832;2022-07-11T10:35:50;24.50;93.30
7566;DHT22;3824;48.010;7.832;2022-07-11T10:38:18;24.50;93.50
7566;DHT22;3824;48.010;7.832;2022-07-11T10:40:48;24.50;93.30
7566;DHT22;3824;48.010;7.832;2022-07-11T10:43:31;24.60;93.60
7566;DHT22;3824;48.010;7.832;2022-07-11T10:45:59;24.60;93.40
7566;DHT22;3824;48.010;7.832;2022-07-11T10:48:28;24.60;93.60
7566;DHT22;3824;48.010;7.832;2022-07-11T10:51:11;24.70;93.90
7566;DHT22;3824;48.010;7.832;2022-07-11T10:53:46;24.80;93.60
7566;DHT22;3824;48.010;7.832;2022-07-11T10:56:27;24.80;93.50
7566;DHT22;3824;48.010;7.832;2022-07-11T10:59:06;24.80;93.50
7566;DHT22;3824;48.010;7.832;2022-07-11T11:02:10;24.90;93.80
7566;DHT22;3824;48.010;7.832;2022-07-11T11:04:49;24.90;93.20
7566;DHT22;3824;48.010;7.832;2022-07-11T11:07:30;24.90;93.50
7566;DHT22;3824;48.010;7.832;2022-07-11T11:09:58;25.00;93.10
7566;DHT22;3824;48.010;7.832;2022-07-11T11:15:34;25.00;93.40
7566;DHT22;3824;48.010;7.832;2022-07-11T11:21:16;25.10;93.60
7566;DHT22;3824;48.010;7.832;2022-07-11T11:23:44;25.30;93.40
7566;DHT22;3824;48.010;7.832;2022-07-11T11:26:12;25.40;93.40
7566;DHT22;3824;48.010;7.832;2022-07-11T11:28:55;25.40;92.90
7566;DHT22;3824;48.010;7.832;2022-07-11T11:31:24;25.40;93.20
7566;DHT22;3824;48.010;7.832;2022-07-11T11:33:52;25.50;92.90
7566;DHT22;3824;48.010;7.832;2022-07-11T11:36:20;25.50;92.90
7566;DHT22;3824;48.010;7.832;2022-07-11T11:38:47;25.40;93.30
7566;DHT22;3824;48.010;7.832;2022-07-11T11:41:20;25.40;93.50
7566;DHT22;3824;48.010;7.832;2022-07-11T11:43:48;25.30;93.10
7566;DHT22;3824;48.010;7.832;2022-07-11T11:46:15;25.20;93.10
7566;DHT22;3824;48.010;7.832;2022-07-11T11:48:43;25.20;93.70
7566;DHT22;3824;48.010;7.832;2022-07-11T11:51:13;25.10;93.80
7566;DHT22;3824;48.010;7.832;2022-07-11T11:53:42;25.10;93.90
7566;DHT22;3824;48.010;7.832;2022-07-11T11:56:14;25.10;94.00
7566;DHT22;3824;48.010;7.832;2022-07-11T11:58:42;25.10;94.10
7566;DHT22;3824;48.010;7.832;2022-07-11T12:01:09;25.30;93.80
7566;DHT22;3824;48.010;7.832;2022-07-11T12:03:51;25.40;93.80
7566;DHT22;3824;48.010;7.832;2022-07-11T12:06:23;25.40;94.00
7566;DHT22;3824;48.010;7.832;2022-07-11T12:08:52;25.40;94.00
7566;DHT22;3824;48.010;7.832;2022-07-11T12:11:19;25.40;93.60
7566;DHT22;3824;48.010;7.832;2022-07-11T12:13:46;25.40;93.70
7566;DHT22;3824;48.010;7.832;2022-07-11T12:16:13;25.50;93.80
7566;DHT22;3824;48.010;7.832;2022-07-11T12:19:00;25.50;93.60
7566;DHT22;3824;48.010;7.832;2022-07-11T12:21:29;25.50;93.70
7566;DHT22;3824;48.010;7.832;2022-07-11T12:23:58;25.50;93.50
7566;DHT22;3824;48.010;7.832;2022-07-11T12:26:27;25.60;93.80
7566;DHT22;3824;48.010;7.832;2022-07-11T12:29:05;25.70;94.00
7566;DHT22;3824;48.010;7.832;2022-07-11T12:31:44;25.70;93.60
7566;DHT22;3824;48.010;7.832;2022-07-11T12:34:14;25.80;93.60
7566;DHT22;3824;48.010;7.832;2022-07-11T12:36:41;25.80;93.60
7566;DHT22;3824;48.010;7.832;2022-07-11T12:39:08;25.80;93.70
7566;DHT22;3824;48.010;7.832;2022-07-11T12:41:35;25.80;93.30
7566;DHT22;3824;48.010;7.832;2022-07-11T12:44:02;25.90;93.70
7566;DHT22;3824;48.010;7.832;2022-07-11T12:46:47;25.90;93.40
7566;DHT22;3824;48.010;7.832;2022-07-11T12:49:16;26.00;93.50
7566;DHT22;3824;48.010;7.832;2022-07-11T12:51:45;26.10;93.70
7566;DHT22;3824;48.010;7.832;2022-07-11T12:54:13;26.10;93.00
7566;DHT22;3824;48.010;7.832;2022-07-11T12:56:44;26.10;93.10
7566;DHT22;3824;48.010;7.832;2022-07-11T12:59:19;26.00;93.30
7566;DHT22;3824;48.010;7.832;2022-07-11T13:01:57;25.90;93.10
7566;DHT22;3824;48.010;7.832;2022-07-11T13:04:36;25.90;92.90
7566;DHT22;3824;48.010;7.832;2022-07-11T13:07:24;25.90;93.10
7566;DHT22;3824;48.010;7.832;2022-07-11T13:10:10;25.90;93.40
7566;DHT22;3824;48.010;7.832;2022-07-11T13:12:37;25.90;93.50
7566;DHT22;3824;48.010;7.832;2022-07-11T13:15:06;25.90;93.40
7566;DHT22;3824;48.010;7.832;2022-07-11T13:17:37;25.90;93.40
7566;DHT22;3824;48.010;7.832;2022-07-11T13:20:08;25.90;93.40
7566;DHT22;3824;48.010;7.832;2022-07-11T13:22:36;26.10;93.10
7566;DHT22;3824;48.010;7.832;2022-07-11T13:25:04;26.20;93.10
7566;DHT22;3824;48.010;7.832;2022-07-11T13:27:31;26.40;93.00
7566;DHT22;3824;48.010;7.832;2022-07-11T13:29:59;26.50;92.80
7566;DHT22;3824;48.010;7.832;2022-07-11T13:32:26;26.60;92.60
7566;DHT22;3824;48.010;7.832;2022-07-11T13:34:53;26.70;92.00
7566;DHT22;3824;48.010;7.832;2022-07-11T13:37:21;26.70;92.40
7566;DHT22;3824;48.010;7.832;2022-07-11T13:39:49;26.70;92.10
7566;DHT22;3824;48.010;7.832;2022-07-11T13:42:16;26.80;92.30
7566;DHT22;3824;48.010;7.832;2022-07-11T13:44:43;26.90;92.00
7566;DHT22;3824;48.010;7.832;2022-07-11T13:47:10;27.00;92.10
7566;DHT22;3824;48.010;7.832;2022-07-11T13:49:39;27.00;91.90
7566;DHT22;3824;48.010;7.832;2022-07-11T13:52:07;27.00;91.60
7566;DHT22;3824;48.010;7.832;2022-07-11T13:54:38;27.00;91.70
7566;DHT22;3824;48.010;7.832;2022-07-11T13:57:05;27.00;91.60
7566;DHT22;3824;48.010;7.832;2022-07-11T13:59:32;26.90;91.70
7566;DHT22;3824;48.010;7.832;2022-07-11T14:01:59;26.90;91.60
7566;DHT22;3824;48.010;7.832;2022-07-11T14:04:26;26.90;91.90
7566;DHT22;3824;48.010;7.832;2022-07-11T14:06:53;26.90;91.50
7566;DHT22;3824;48.010;7.832;2022-07-11T14:09:21;27.00;92.00
7566;DHT22;3824;48.010;7.832;2022-07-11T14:11:49;27.20;91.90
7566;DHT22;3824;48.010;7.832;2022-07-11T14:14:16;27.10;91.70
7566;DHT22;3824;48.010;7.832;2022-07-11T14:16:44;27.10;91.60
7566;DHT22;3824;48.010;7.832;2022-07-11T14:19:11;27.10;91.40
7566;DHT22;3824;48.010;7.832;2022-07-11T14:21:38;27.10;91.50
7566;DHT22;3824;48.010;7.832;2022-07-11T14:24:05;27.00;91.60
7566;DHT22;3824;48.010;7.832;2022-07-11T14:26:33;26.90;91.80
7566;DHT22;3824;48.010;7.832;2022-07-11T14:29:03;26.90;91.90
7566;DHT22;3824;48.010;7.832;2022-07-11T14:31:30;26.80;91.70
7566;DHT22;3824;48.010;7.832;2022-07-11T14:33:58;26.80;91.80
7566;DHT22;3824;48.010;7.832;2022-07-11T14:36:25;26.90;92.20
7566;DHT22;3824;48.010;7.832;2022-07-11T14:38:52;27.00;92.00
7566;DHT22;3824;48.010;7.832;2022-07-11T14:41:19;26.90;91.50
7566;DHT22;3824;48.010;7.832;2022-07-11T14:43:47;27.00;91.50
7566;DHT22;3824;48.010;7.832;2022-07-11T14:46:15;27.10;91.60
7566;DHT22;3824;48.010;7.832;2022-07-11T14:48:43;27.10;91.60
7566;DHT22;3824;48.010;7.832;2022-07-11T14:51:10;27.20;91.60
7566;DHT22;3824;48.010;7.832;2022-07-11T14:53:37;27.30;91.40
7566;DHT22;3824;48.010;7.832;2022-07-11T14:56:05;27.40;91.40
7566;DHT22;3824;48.010;7.832;2022-07-11T14:58:32;27.40;91.10
7566;DHT22;3824;48.010;7.832;2022-07-11T15:00:59;27.50;91.50
7566;DHT22;3824;48.010;7.832;2022-07-11T15:03:28;27.60;90.60
7566;DHT22;3824;48.010;7.832;2022-07-11T15:06:10;27.40;90.80
7566;DHT22;3824;48.010;7.832;2022-07-11T15:08:37;27.30;91.10
7566;DHT22;3824;48.010;7.832;2022-07-11T15:11:22;27.30;91.60
7566;DHT22;3824;48.010;7.832;2022-07-11T15:14:07;27.50;91.20
7566;DHT22;3824;48.010;7.832;2022-07-11T15:16:34;27.50;91.00
7566;DHT22;3824;48.010;7.832;2022-07-11T15:19:04;27.40;91.00
7566;DHT22;3824;48.010;7.832;2022-07-11T15:21:31;27.30;90.90
7566;DHT22;3824;48.010;7.832;2022-07-11T15:23:59;27.20;91.10
7566;DHT22;3824;48.010;7.832;2022-07-11T15:26:26;27.10;91.50
7566;DHT22;3824;48.010;7.832;2022-07-11T15:28:54;26.90;91.30
7566;DHT22;3824;48.010;7.832;2022-07-11T15:31:21;26.90;91.30
7566;DHT22;3824;48.010;7.832;2022-07-11T15:33:48;26.80;91.60
7566;DHT22;3824;48.010;7.832;2022-07-11T15:36:17;26.90;91.80
7566;DHT22;3824;48.010;7.832;2022-07-11T15:38:44;26.70;91.80
7566;DHT22;3824;48.010;7.832;2022-07-11T15:41:13;26.80;91.70
7566;DHT22;3824;48.010;7.832;2022-07-11T15:43:40;26.80;91.70
7566;DHT22;3824;48.010;7.832;2022-07-11T15:46:07;26.80;91.80
7566;DHT22;3824;48.010;7.832;2022-07-11T15:48:34;26.80;91.80
7566;DHT22;3824;48.010;7.832;2022-07-11T15:51:01;26.70;91.90
7566;DHT22;3824;48.010;7.832;2022-07-11T15:53:30;26.70;91.60
7566;DHT22;3824;48.010;7.832;2022-07-11T15:55:57;26.60;92.10
7566;DHT22;3824;48.010;7.832;2022-07-11T15:58:24;26.60;91.90
7566;DHT22;3824;48.010;7.832;2022-07-11T16:00:52;26.50;92.00
7566;DHT22;3824;48.010;7.832;2022-07-11T16:03:19;26.50;92.10
7566;DHT22;3824;48.010;7.832;2022-07-11T16:05:46;26.40;92.10
7566;DHT22;3824;48.010;7.832;2022-07-11T16:08:14;26.40;91.90
7566;DHT22;3824;48.010;7.832;2022-07-11T16:10:42;26.40;91.90
7566;DHT22;3824;48.010;7.832;2022-07-11T16:13:10;26.30;91.90
7566;DHT22;3824;48.010;7.832;2022-07-11T16:15:38;26.30;92.10
7566;DHT22;3824;48.010;7.832;2022-07-11T16:18:05;26.30;92.20